Time;durP1;ratioP1;P1;durP2;ratioP2;P2;SDS_P1;SDS_P2;PMS_P1;PMS_P2;Temp;Humidity;BMP_temperature;BMP_pressure;BME280_temperature;BME280_humidity;BME280_pressure;Samples;Min_cycle;Max_cycle;Signal;HPM_P1;HPM_P2
2021/11/08 00:02:13;;;;;;;6.30;2.53;;;17.00;99.90;;;;;;5093749;28;20032;-71
2021/11/08 00:04:39;;;;;;;7.45;2.60;;;17.00;99.90;;;;;;5093653;28;20463;-71
2021/11/08 00:07:05;;;;;;;7.57;2.97;;;17.00;99.90;;;;;;5093992;28;20020;-71
2021/11/08 00:09:30;;;;;;;6.20;2.30;;;17.00;99.90;;;;;;5093635;28;20020;-71
2021/11/08 00:11:57;;;;;;;3.95;2.13;;;17.00;99.90;;;;;;5093966;28;20085;-71
2021/11/08 00:14:23;;;;;;;7.07;2.75;;;17.00;99.90;;;;;;5092712;28;20024;-72
2021/11/08 00:17:00;;;;;;;6.25;2.00;;;17.00;99.90;;;;;;5093592;28;20055;-68
2021/11/08 00:22:04;;;;;;;6.47;2.22;;;17.00;99.90;;;;;;5092635;28;20028;-71
2021/11/08 00:24:32;;;;;;;6.57;2.60;;;17.00;99.90;;;;;;5093303;28;20023;-71
2021/11/08 00:26:59;;;;;;;11.15;2.20;;;17.00;99.90;;;;;;5093623;28;20028;-71
2021/11/08 00:29:25;;;;;;;5.57;2.55;;;17.00;99.90;;;;;;5093709;28;20016;-71
2021/11/08 00:31:51;;;;;;;8.02;2.53;;;17.00;99.90;;;;;;5092958;28;20503;-71
2021/11/08 00:34:17;;;;;;;6.05;2.47;;;17.00;99.90;;;;;;5093201;28;20043;-71
2021/11/08 00:36:42;;;;;;;5.57;2.25;;;17.00;99.90;;;;;;5092796;28;20040;-71
2021/11/08 00:39:09;;;;;;;6.00;2.35;;;17.00;99.90;;;;;;5093377;28;20467;-71
2021/11/08 00:41:35;;;;;;;7.80;2.50;;;16.90;99.90;;;;;;5092876;28;20048;-71
2021/11/08 00:44:01;;;;;;;7.50;2.28;;;16.90;99.90;;;;;;5093154;28;20109;-71
2021/11/08 00:46:27;;;;;;;5.93;2.30;;;16.90;99.90;;;;;;5093199;28;20032;-71
2021/11/08 00:48:53;;;;;;;6.65;2.55;;;16.90;99.90;;;;;;5093172;28;20546;-71
2021/11/08 00:51:18;;;;;;;4.50;2.00;;;16.90;99.90;;;;;;5092946;28;20027;-71
2021/11/08 00:53:45;;;;;;;6.30;2.60;;;16.90;99.90;;;;;;5091265;28;20123;-71
2021/11/08 00:56:16;;;;;;;6.43;2.20;;;16.90;99.90;;;;;;5092862;28;20040;-71
2021/11/08 00:58:43;;;;;;;6.57;2.40;;;16.90;99.90;;;;;;5092394;28;20028;-71
2021/11/08 01:01:10;;;;;;;6.15;2.30;;;16.90;99.90;;;;;;5092801;28;20042;-71
2021/11/08 01:03:43;;;;;;;5.72;1.95;;;16.90;99.90;;;;;;5092560;28;20358;-72
2021/11/08 01:06:10;;;;;;;4.60;2.20;;;16.90;99.90;;;;;;5092867;28;20110;-71
2021/11/08 01:08:36;;;;;;;6.18;2.47;;;16.90;99.90;;;;;;5092570;28;20262;-71
2021/11/08 01:11:02;;;;;;;5.53;2.17;;;16.90;99.90;;;;;;5092497;28;20024;-71
2021/11/08 01:13:28;;;;;;;4.30;1.92;;;16.90;99.90;;;;;;5092316;28;20067;-71
2021/11/08 01:15:55;;;;;;;4.25;1.98;;;16.90;99.90;;;;;;5092726;28;20028;-71
2021/11/08 01:18:22;;;;;;;7.03;2.20;;;16.80;99.90;;;;;;5092382;28;20016;-71
2021/11/08 01:20:48;;;;;;;3.75;1.85;;;16.90;99.90;;;;;;5092230;28;20024;-70
2021/11/08 01:23:16;;;;;;;4.97;2.10;;;16.80;99.90;;;;;;5092451;28;20443;-71
2021/11/08 01:25:42;;;;;;;5.57;2.17;;;16.80;99.90;;;;;;5092162;28;20027;-71
2021/11/08 01:28:10;;;;;;;4.63;2.00;;;16.80;99.90;;;;;;5092402;28;20482;-71
2021/11/08 01:30:35;;;;;;;9.05;2.28;;;16.80;99.90;;;;;;5092190;28;20107;-71
2021/11/08 01:33:10;;;;;;;5.28;2.17;;;16.80;99.90;;;;;;5092240;28;20602;-71
2021/11/08 01:35:40;;;;;;;5.07;2.20;;;16.80;99.90;;;;;;5090853;28;20040;-71
2021/11/08 01:38:10;;;;;;;5.00;1.98;;;16.80;99.90;;;;;;5092318;28;20028;-71
2021/11/08 01:40:38;;;;;;;4.65;2.20;;;16.80;99.90;;;;;;5091839;28;20027;-71
2021/11/08 01:43:05;;;;;;;5.78;2.08;;;16.80;99.90;;;;;;5091936;28;20020;-71
2021/11/08 01:45:31;;;;;;;5.45;1.90;;;16.70;99.90;;;;;;5090453;28;20034;-71
2021/11/08 01:47:57;;;;;;;6.70;2.22;;;16.80;99.90;;;;;;5092124;28;20383;-71
2021/11/08 01:50:24;;;;;;;7.93;1.85;;;16.80;99.90;;;;;;5092277;28;20479;-71
2021/11/08 01:52:51;;;;;;;6.88;2.17;;;16.80;99.90;;;;;;5091836;28;20035;-71
2021/11/08 01:55:18;;;;;;;4.95;1.80;;;16.80;99.90;;;;;;5091564;28;20047;-71
2021/11/08 01:57:44;;;;;;;7.57;2.10;;;16.80;99.90;;;;;;5091504;28;20440;-71
2021/11/08 02:00:12;;;;;;;4.70;1.95;;;16.80;99.90;;;;;;5091717;28;20032;-71
2021/11/08 02:02:37;;;;;;;7.03;2.13;;;16.80;99.90;;;;;;5091480;28;20027;-71
2021/11/08 02:05:04;;;;;;;4.13;2.03;;;16.70;99.90;;;;;;5091765;28;20380;-71
2021/11/08 02:07:30;;;;;;;6.85;2.10;;;16.80;99.90;;;;;;5091395;28;20020;-71
2021/11/08 02:09:56;;;;;;;4.93;2.15;;;16.80;99.90;;;;;;5092015;28;20524;-71
2021/11/08 02:12:22;;;;;;;5.00;1.77;;;16.70;99.90;;;;;;5091836;28;20109;-71
2021/11/08 02:14:48;;;;;;;5.93;2.20;;;16.70;99.90;;;;;;5089913;28;20070;-71
2021/11/08 02:17:14;;;;;;;5.60;2.17;;;16.70;99.90;;;;;;5090244;28;20526;-71
2021/11/08 02:19:40;;;;;;;6.95;2.35;;;16.70;99.90;;;;;;5090801;28;20028;-71
2021/11/08 02:22:06;;;;;;;5.35;2.15;;;16.70;99.90;;;;;;5091474;28;20444;-72
2021/11/08 02:24:34;;;;;;;5.70;1.92;;;16.70;99.90;;;;;;5091447;28;20064;-71
2021/11/08 02:27:01;;;;;;;5.53;2.03;;;16.70;99.90;;;;;;5091610;28;20118;-71
2021/11/08 02:29:27;;;;;;;4.78;2.00;;;16.70;99.90;;;;;;5091420;28;20059;-71
2021/11/08 02:31:54;;;;;;;5.47;2.10;;;16.70;99.90;;;;;;5091774;28;20422;-71
2021/11/08 02:34:19;;;;;;;5.43;2.15;;;16.70;99.90;;;;;;5091353;28;20532;-72
2021/11/08 02:36:45;;;;;;;10.02;2.50;;;16.70;99.90;;;;;;5091068;28;20028;-71
2021/11/08 02:39:27;;;;;;;6.22;1.80;;;16.70;99.90;;;;;;5091437;28;20052;-71
2021/11/08 02:41:52;;;;;;;4.93;1.90;;;16.70;99.90;;;;;;5091594;28;20111;-70
2021/11/08 02:44:18;;;;;;;5.35;1.63;;;16.70;99.90;;;;;;5091378;28;20075;-71
2021/11/08 02:46:43;;;;;;;4.32;1.70;;;16.70;99.90;;;;;;5091098;28;20070;-71
2021/11/08 02:49:12;;;;;;;5.50;2.05;;;16.70;99.90;;;;;;5091239;28;20032;-71
2021/11/08 02:51:43;;;;;;;6.35;2.22;;;16.70;99.90;;;;;;5090831;28;20030;-71
2021/11/08 02:54:22;;;;;;;4.15;1.85;;;16.70;99.90;;;;;;5089859;28;20035;-71
2021/11/08 02:56:48;;;;;;;5.45;1.90;;;16.70;99.90;;;;;;5090838;28;20062;-71
2021/11/08 02:59:14;;;;;;;6.95;1.98;;;16.70;99.90;;;;;;5091297;28;20487;-71
2021/11/08 03:01:40;;;;;;;5.93;2.30;;;16.70;99.90;;;;;;5090808;28;20111;-71
2021/11/08 03:04:13;;;;;;;4.68;1.92;;;16.70;99.90;;;;;;5091181;28;20464;-70
2021/11/08 03:06:39;;;;;;;8.15;1.90;;;16.70;99.90;;;;;;5090865;28;20107;-71
2021/11/08 03:09:11;;;;;;;5.15;2.10;;;16.70;99.90;;;;;;5091146;28;20112;-70
2021/11/08 03:11:37;;;;;;;3.92;1.75;;;16.70;99.90;;;;;;5090772;28;20038;-70
2021/11/08 03:14:06;;;;;;;5.68;1.90;;;16.70;99.90;;;;;;5089780;28;20099;-70
2021/11/08 03:19:15;;;;;;;4.90;1.77;;;16.70;99.90;;;;;;5091027;28;20016;-70
2021/11/08 03:21:41;;;;;;;4.35;1.60;;;16.70;99.90;;;;;;5090819;28;20051;-71
2021/11/08 03:24:08;;;;;;;4.88;2.00;;;16.70;99.90;;;;;;5090986;28;20496;-70
2021/11/08 03:26:47;;;;;;;4.72;1.92;;;16.70;99.90;;;;;;5090547;28;20472;-70
2021/11/08 03:29:14;;;;;;;4.15;1.70;;;16.70;99.90;;;;;;5089685;28;20027;-71
2021/11/08 03:31:42;;;;;;;5.90;1.63;;;16.70;99.90;;;;;;5092822;28;20491;-70
2021/11/08 03:34:09;;;;;;;5.13;2.08;;;16.70;99.90;;;;;;5094619;28;20039;-70
2021/11/08 03:36:36;;;;;;;3.95;1.67;;;16.70;99.90;;;;;;5094190;28;20502;-70
2021/11/08 03:39:02;;;;;;;6.05;1.83;;;16.80;99.90;;;;;;5094323;28;20484;-70
2021/11/08 03:41:29;;;;;;;4.80;1.95;;;16.80;99.90;;;;;;5094119;28;20101;-70
2021/11/08 03:43:55;;;;;;;4.38;1.80;;;16.80;99.90;;;;;;5093300;28;20531;-70
2021/11/08 03:46:21;;;;;;;5.43;1.83;;;16.80;99.90;;;;;;5094103;28;20028;-71
2021/11/08 03:48:47;;;;;;;4.78;1.95;;;16.80;99.90;;;;;;5094187;28;20024;-70
2021/11/08 03:51:13;;;;;;;5.95;1.92;;;16.80;99.90;;;;;;5094186;28;20032;-70
2021/11/08 03:53:38;;;;;;;6.10;1.92;;;16.80;99.90;;;;;;5093835;28;20028;-71
2021/11/08 03:56:06;;;;;;;4.45;1.73;;;16.80;99.90;;;;;;5094082;28;20039;-71
2021/11/08 03:58:32;;;;;;;3.90;1.88;;;16.80;99.90;;;;;;5093654;28;20039;-71
2021/11/08 04:00:59;;;;;;;3.33;1.70;;;16.80;99.90;;;;;;5093864;28;20024;-71
2021/11/08 04:03:24;;;;;;;4.07;1.73;;;16.80;99.90;;;;;;5093946;28;20024;-71
2021/11/08 04:05:50;;;;;;;5.20;1.88;;;16.80;99.90;;;;;;5093870;28;20036;-70
2021/11/08 04:08:20;;;;;;;4.85;1.73;;;16.80;99.90;;;;;;5093849;28;20024;-70
2021/11/08 04:10:51;;;;;;;4.90;1.92;;;16.80;99.90;;;;;;5093581;28;20028;-71
2021/11/08 04:13:17;;;;;;;4.18;1.95;;;16.80;99.90;;;;;;5093599;28;20032;-71
2021/11/08 04:15:47;;;;;;;6.90;2.03;;;16.80;99.90;;;;;;5093277;28;20036;-70
2021/11/08 04:18:20;;;;;;;4.97;1.52;;;16.80;99.90;;;;;;5093750;28;20016;-70
2021/11/08 04:20:47;;;;;;;9.23;2.10;;;16.90;99.90;;;;;;5093367;28;20528;-70
2021/11/08 04:23:14;;;;;;;5.78;1.88;;;16.90;99.90;;;;;;5093412;28;20290;-70
2021/11/08 04:25:41;;;;;;;3.90;1.75;;;16.90;99.90;;;;;;5093595;28;20407;-70
2021/11/08 04:28:07;;;;;;;4.35;1.42;;;16.90;99.90;;;;;;5093327;28;20581;-70
2021/11/08 04:30:37;;;;;;;4.00;1.90;;;16.90;99.90;;;;;;5093147;28;20039;-70
2021/11/08 04:33:15;;;;;;;5.15;1.88;;;16.90;99.90;;;;;;5093421;28;20016;-70
2021/11/08 04:35:46;;;;;;;6.05;1.60;;;16.90;99.90;;;;;;5093033;28;20464;-70
2021/11/08 04:51:43;;;;;;;3.42;1.65;;;16.90;99.90;;;;;;5072947;28;20059;-71
2021/11/08 04:54:46;;;;;;;4.95;1.80;;;16.90;99.90;;;;;;5072401;28;20065;-70
2021/11/08 05:32:09;;;;;;;5.72;1.42;;;17.00;99.90;;;;;;5072147;28;20495;-70
2021/11/08 05:34:35;;;;;;;4.40;1.65;;;17.00;99.90;;;;;;5071654;28;20029;-70
2021/11/08 05:37:01;;;;;;;5.88;1.50;;;17.00;99.90;;;;;;5072048;28;20029;-71
2021/11/08 05:39:27;;;;;;;3.47;1.75;;;17.00;99.90;;;;;;5087613;28;20082;-71
2021/11/08 05:41:52;;;;;;;4.93;1.70;;;17.00;99.90;;;;;;5078212;28;20031;-70
2021/11/08 05:44:18;;;;;;;4.75;2.00;;;17.00;99.90;;;;;;5092039;28;20103;-70
2021/11/08 05:46:43;;;;;;;4.25;1.70;;;17.00;99.90;;;;;;5091986;28;20103;-70
2021/11/08 05:49:09;;;;;;;4.55;1.73;;;17.10;99.90;;;;;;5091888;28;20494;-70
2021/11/08 05:51:35;;;;;;;7.85;2.25;;;17.10;99.90;;;;;;5091684;28;20020;-70
2021/11/08 05:54:01;;;;;;;3.88;1.70;;;17.00;99.90;;;;;;5091421;28;20020;-70
2021/11/08 06:50:56;;;;;;;4.55;1.52;;;17.40;99.90;;;;;;5070843;28;20044;-71
2021/11/08 06:53:21;;;;;;;6.30;1.75;;;17.50;99.90;;;;;;5071479;28;20036;-71
2021/11/08 06:55:51;;;;;;;3.92;1.70;;;17.50;99.90;;;;;;5077916;28;20472;-70
2021/11/08 06:58:18;;;;;;;3.55;1.80;;;17.50;99.90;;;;;;5091220;28;20036;-71
2021/11/08 07:00:45;;;;;;;4.93;1.80;;;17.50;99.90;;;;;;5090784;28;20099;-71
2021/11/08 07:03:12;;;;;;;6.18;1.80;;;17.50;99.90;;;;;;5091409;28;20036;-71
2021/11/08 07:05:38;;;;;;;5.43;1.88;;;17.50;99.90;;;;;;5093248;28;20024;-70
2021/11/08 07:08:04;;;;;;;3.80;1.50;;;17.50;99.90;;;;;;5095127;28;20453;-71
2021/11/08 07:10:30;;;;;;;5.47;1.95;;;17.50;99.90;;;;;;5094495;28;20028;-70
2021/11/08 07:12:56;;;;;;;6.10;1.95;;;17.60;99.90;;;;;;5095566;28;20107;-73
2021/11/08 07:15:23;;;;;;;4.90;2.13;;;17.60;99.90;;;;;;5095003;28;20103;-66
2021/11/08 07:17:50;;;;;;;4.50;1.60;;;17.60;99.90;;;;;;5094649;28;20031;-72
2021/11/08 07:20:17;;;;;;;4.45;1.80;;;17.60;99.90;;;;;;5094592;28;20028;-72
2021/11/08 07:22:43;;;;;;;4.15;1.75;;;17.60;99.90;;;;;;5094432;28;20079;-72
2021/11/08 07:25:09;;;;;;;3.90;1.73;;;17.60;99.90;;;;;;5094702;28;20062;-72
2021/11/08 07:27:35;;;;;;;7.40;2.28;;;17.60;99.90;;;;;;5094551;28;20038;-72
2021/11/08 07:30:02;;;;;;;5.63;1.98;;;17.70;99.90;;;;;;5094579;28;20024;-72
2021/11/08 07:32:27;;;;;;;4.90;1.90;;;17.70;99.90;;;;;;5094316;28;20426;-72
2021/11/08 07:34:54;;;;;;;4.28;1.85;;;17.70;99.90;;;;;;5094762;28;20027;-72
2021/11/08 07:37:20;;;;;;;3.95;1.70;;;17.70;99.90;;;;;;5094753;28;20107;-73
2021/11/08 07:39:46;;;;;;;5.53;2.10;;;17.70;99.90;;;;;;5094364;28;20099;-72
2021/11/08 07:42:12;;;;;;;7.40;2.20;;;17.70;99.90;;;;;;5094333;28;20058;-72
2021/11/08 07:44:38;;;;;;;3.15;1.80;;;17.70;99.90;;;;;;5094138;28;20073;-72
2021/11/08 07:47:04;;;;;;;6.30;2.00;;;17.70;99.90;;;;;;5094369;28;20023;-72
2021/11/08 07:49:30;;;;;;;5.70;2.00;;;17.60;99.90;;;;;;5094278;28;20427;-72
2021/11/08 07:51:56;;;;;;;4.90;1.80;;;17.70;99.90;;;;;;5095010;28;20036;-72
2021/11/08 07:54:23;;;;;;;4.82;1.88;;;17.70;99.90;;;;;;5094568;28;20057;-72
2021/11/08 07:56:49;;;;;;;5.78;2.28;;;17.60;99.90;;;;;;5092623;28;20043;-72
2021/11/08 07:59:18;;;;;;;4.45;1.92;;;17.70;99.90;;;;;;5093811;28;20499;-72
2021/11/08 08:01:47;;;;;;;4.57;1.90;;;17.60;99.90;;;;;;5092291;28;20035;-74
2021/11/08 08:04:12;;;;;;;4.57;1.65;;;17.60;99.90;;;;;;5092341;28;20024;-74
2021/11/08 08:06:38;;;;;;;4.60;1.88;;;17.60;99.90;;;;;;5092895;28;20432;-70
2021/11/08 08:09:05;;;;;;;3.75;1.92;;;17.60;99.90;;;;;;5093828;28;20028;-72
2021/11/08 08:11:31;;;;;;;4.57;1.67;;;17.60;99.90;;;;;;5093639;28;20024;-70
2021/11/08 08:13:56;;;;;;;4.60;1.90;;;17.70;99.90;;;;;;5093799;28;20498;-72
2021/11/08 08:16:22;;;;;;;6.32;2.38;;;17.70;99.90;;;;;;5093089;28;20035;-70
2021/11/08 08:18:50;;;;;;;5.85;1.80;;;17.70;99.90;;;;;;5093357;28;20020;-69
2021/11/08 08:21:17;;;;;;;5.00;2.10;;;17.70;99.90;;;;;;5093311;28;20024;-69
2021/11/08 08:23:43;;;;;;;5.13;2.05;;;17.70;99.90;;;;;;5093427;28;20020;-70
2021/11/08 08:26:10;;;;;;;4.78;2.15;;;17.70;99.90;;;;;;5093335;28;20028;-68
2021/11/08 08:28:37;;;;;;;5.57;2.03;;;17.70;99.90;;;;;;5093132;28;20024;-68
2021/11/08 08:31:02;;;;;;;6.60;2.30;;;17.70;99.90;;;;;;5088632;28;20020;-72
2021/11/08 08:33:28;;;;;;;4.95;2.20;;;17.80;99.90;;;;;;5073072;28;20103;-68
2021/11/08 08:35:54;;;;;;;5.38;2.08;;;17.80;99.90;;;;;;5079755;28;20032;-71
2021/11/08 08:38:22;;;;;;;5.38;2.22;;;17.80;99.90;;;;;;5093193;28;20016;-70
2021/11/08 08:40:50;;;;;;;4.03;2.05;;;17.90;99.90;;;;;;5081672;28;20037;-70
2021/11/08 08:43:18;;;;;;;5.63;1.85;;;17.90;99.90;;;;;;5085721;28;20020;-70
2021/11/08 08:45:43;;;;;;;4.20;2.05;;;17.90;99.90;;;;;;5092756;28;20030;-70
2021/11/08 08:48:11;;;;;;;5.78;2.28;;;17.90;99.90;;;;;;5092941;28;20453;-69
2021/11/08 08:50:38;;;;;;;5.13;2.22;;;17.90;99.90;;;;;;5092732;28;20039;-71
2021/11/08 08:53:04;;;;;;;3.78;1.92;;;18.00;99.90;;;;;;5091581;28;20016;-70
2021/11/08 08:55:31;;;;;;;4.32;2.20;;;18.00;99.90;;;;;;5091876;28;20534;-69
2021/11/08 08:57:57;;;;;;;5.55;2.20;;;18.00;99.90;;;;;;5093190;28;20377;-71
2021/11/08 09:00:23;;;;;;;6.80;2.05;;;18.00;99.90;;;;;;5092983;28;20024;-70
2021/11/08 09:02:52;;;;;;;4.53;2.00;;;18.00;99.90;;;;;;5092531;28;20023;-70
2021/11/08 09:05:19;;;;;;;4.68;2.08;;;18.10;99.90;;;;;;5093025;28;20420;-70
2021/11/08 09:07:45;;;;;;;5.03;2.17;;;18.10;99.90;;;;;;5092528;28;20472;-69
2021/11/08 09:10:11;;;;;;;3.72;2.00;;;18.10;99.90;;;;;;5092668;28;20028;-68
2021/11/08 09:12:37;;;;;;;6.10;2.50;;;18.20;99.90;;;;;;5090582;28;20462;-70
2021/11/08 09:15:05;;;;;;;5.18;2.28;;;18.20;99.90;;;;;;5072264;28;20048;-68
2021/11/08 09:17:31;;;;;;;5.53;1.95;;;18.20;99.90;;;;;;5071934;28;20380;-69
2021/11/08 09:19:57;;;;;;;4.53;2.10;;;18.20;99.90;;;;;;5075951;28;20031;-69
2021/11/08 09:22:24;;;;;;;5.43;2.35;;;18.30;99.90;;;;;;5092656;28;20056;-68
2021/11/08 09:24:50;;;;;;;5.28;2.20;;;18.30;99.90;;;;;;5092148;28;20129;-67
2021/11/08 09:27:16;;;;;;;4.25;2.35;;;18.30;99.90;;;;;;5090311;28;20024;-67
2021/11/08 09:29:41;;;;;;;5.60;2.45;;;18.30;99.90;;;;;;5091179;28;20099;-67
2021/11/08 09:32:07;;;;;;;6.13;2.40;;;18.30;99.90;;;;;;5092165;28;20055;-67
2021/11/08 09:34:39;;;;;;;5.68;2.55;;;18.40;99.90;;;;;;5091948;28;20059;-67
2021/11/08 09:37:10;;;;;;;6.05;2.55;;;18.40;99.90;;;;;;5092195;28;20032;-67
2021/11/08 09:39:39;;;;;;;6.20;2.33;;;18.40;99.90;;;;;;5091823;28;20030;-68
2021/11/08 09:42:10;;;;;;;4.85;1.90;;;18.40;99.90;;;;;;5091364;28;20039;-68
2021/11/08 09:44:37;;;;;;;6.05;2.15;;;18.50;99.90;;;;;;5091807;28;20058;-71
2021/11/08 09:47:03;;;;;;;6.38;2.60;;;18.50;99.90;;;;;;5092372;28;20435;-69
2021/11/08 09:49:30;;;;;;;5.47;2.78;;;18.50;99.90;;;;;;5091750;28;20499;-68
2021/11/08 09:51:58;;;;;;;6.03;2.53;;;18.50;99.90;;;;;;5092196;28;20043;-68
2021/11/08 09:54:28;;;;;;;4.65;2.60;;;18.50;99.90;;;;;;5092288;28;20028;-66
2021/11/08 09:56:56;;;;;;;6.60;2.60;;;18.60;99.90;;;;;;5092351;28;20110;-69
2021/11/08 09:59:21;;;;;;;5.45;2.40;;;18.60;99.90;;;;;;5091650;28;20109;-68
2021/11/08 10:01:50;;;;;;;5.97;2.38;;;18.60;99.90;;;;;;5091385;28;20063;-69
2021/11/08 10:04:17;;;;;;;4.80;2.30;;;18.60;99.90;;;;;;5071446;28;20082;-70
2021/11/08 10:06:44;;;;;;;6.28;2.53;;;18.60;99.90;;;;;;5071346;28;20035;-67
2021/11/08 10:09:11;;;;;;;4.57;2.25;;;18.70;99.90;;;;;;5071425;28;20472;-68
2021/11/08 10:11:38;;;;;;;5.63;2.30;;;18.70;99.90;;;;;;5071149;28;20032;-70
2021/11/08 10:14:06;;;;;;;4.82;2.03;;;18.70;99.90;;;;;;5071875;28;20028;-67
2021/11/08 10:16:34;;;;;;;7.32;2.70;;;18.70;99.90;;;;;;5071006;28;20437;-68
2021/11/08 10:19:03;;;;;;;5.55;2.42;;;18.70;99.90;;;;;;5071755;28;20024;-68
2021/11/08 10:21:37;;;;;;;4.97;2.33;;;18.80;99.90;;;;;;5091165;28;20360;-67
2021/11/08 10:24:08;;;;;;;6.18;2.38;;;18.80;99.90;;;;;;5090776;28;20024;-68
2021/11/08 10:26:36;;;;;;;5.10;2.33;;;18.80;99.90;;;;;;5071095;28;20380;-68
2021/11/08 10:29:17;;;;;;;5.25;2.53;;;18.80;99.90;;;;;;5071414;28;20077;-70
2021/11/08 10:31:54;;;;;;;5.43;2.40;;;18.90;99.90;;;;;;5071037;28;20495;-66
2021/11/08 10:34:22;;;;;;;4.95;2.60;;;18.90;99.90;;;;;;5071278;28;20028;-67
2021/11/08 10:37:01;;;;;;;6.95;2.50;;;18.90;99.90;;;;;;5073485;28;20041;-67
2021/11/08 10:39:30;;;;;;;5.65;2.22;;;19.00;99.90;;;;;;5071731;28;20480;-68
2021/11/08 10:41:56;;;;;;;6.78;2.65;;;19.00;99.90;;;;;;5075558;28;20078;-69
2021/11/08 10:44:23;;;;;;;5.40;2.58;;;19.00;99.90;;;;;;5075657;28;20116;-67
2021/11/08 10:47:18;;;;;;;5.22;2.25;;;19.00;99.90;;;;;;5075011;28;20125;-68
2021/11/08 10:49:44;;;;;;;5.88;2.65;;;19.00;99.90;;;;;;5074569;28;20381;-67
2021/11/08 10:52:14;;;;;;;5.20;2.30;;;19.00;99.90;;;;;;5075166;28;20158;-68
2021/11/08 10:54:45;;;;;;;5.50;2.30;;;19.10;99.90;;;;;;5074698;28;20025;-68
2021/11/08 10:57:16;;;;;;;4.55;2.35;;;19.10;99.90;;;;;;5075022;28;20060;-69
2021/11/08 10:59:48;;;;;;;6.20;2.58;;;19.10;99.90;;;;;;5089674;28;20028;-67
2021/11/08 11:02:17;;;;;;;5.10;2.38;;;19.10;99.90;;;;;;5074954;28;20025;-68
2021/11/08 11:04:55;;;;;;;5.72;2.35;;;19.10;99.90;;;;;;5074577;28;20151;-68
2021/11/08 11:07:28;;;;;;;5.43;2.17;;;19.10;99.90;;;;;;5074895;28;20025;-67
2021/11/08 11:10:09;;;;;;;6.32;2.50;;;19.10;99.90;;;;;;5075271;28;20534;-68
2021/11/08 11:12:36;;;;;;;4.85;2.30;;;19.20;99.90;;;;;;5074574;28;20029;-67
2021/11/08 11:15:20;;;;;;;4.88;2.40;;;19.20;99.90;;;;;;5074833;28;20388;-69
2021/11/08 11:17:51;;;;;;;5.07;2.70;;;19.20;99.70;;;;;;5074386;28;20078;-68
2021/11/08 11:20:27;;;;;;;5.15;2.35;;;19.20;99.70;;;;;;5074475;28;20028;-67
2021/11/08 11:23:03;;;;;;;7.15;2.80;;;19.20;99.80;;;;;;5074715;28;20545;-66
2021/11/08 11:25:32;;;;;;;4.75;2.15;;;19.20;99.70;;;;;;5074134;28;20036;-66
2021/11/08 11:28:00;;;;;;;5.63;2.30;;;19.20;99.50;;;;;;5074176;28;20067;-68
2021/11/08 11:30:38;;;;;;;4.80;1.90;;;19.30;99.40;;;;;;5074487;28;20525;-68
2021/11/08 11:33:14;;;;;;;5.55;2.28;;;19.20;99.20;;;;;;5074257;28;20020;-68
2021/11/08 11:35:45;;;;;;;4.38;2.10;;;19.30;99.10;;;;;;5084194;28;20028;-68
2021/11/08 11:38:29;;;;;;;5.75;2.38;;;19.20;99.00;;;;;;5094379;28;20028;-68
2021/11/08 11:41:35;;;;;;;5.97;2.15;;;19.20;99.00;;;;;;5094627;28;20234;-72
2021/11/08 11:44:07;;;;;;;4.93;1.90;;;19.20;99.10;;;;;;5094160;28;20108;-73
2021/11/08 11:46:38;;;;;;;6.53;2.53;;;19.20;99.00;;;;;;5094087;28;20115;-72
2021/11/08 11:49:05;;;;;;;6.50;2.20;;;19.20;99.00;;;;;;5094360;28;20028;-72
2021/11/08 11:51:38;;;;;;;6.15;2.40;;;19.20;99.10;;;;;;5092747;28;20024;-72
2021/11/08 11:54:06;;;;;;;7.78;2.72;;;19.20;99.20;;;;;;5094254;28;20051;-73
2021/11/08 11:56:34;;;;;;;8.88;2.45;;;19.20;99.20;;;;;;5093774;28;20035;-69
2021/11/08 11:59:01;;;;;;;4.85;2.50;;;19.20;99.20;;;;;;5094094;28;20028;-70
2021/11/08 12:01:29;;;;;;;5.93;2.35;;;19.20;99.30;;;;;;5094459;28;20028;-69
2021/11/08 12:03:55;;;;;;;6.28;2.63;;;19.20;99.40;;;;;;5094347;28;20472;-71
2021/11/08 12:06:25;;;;;;;6.13;2.40;;;19.20;99.40;;;;;;5093864;28;20032;-74
2021/11/08 12:08:56;;;;;;;7.43;2.42;;;19.20;99.40;;;;;;5092920;28;20032;-75
2021/11/08 12:11:29;;;;;;;6.20;2.53;;;19.20;99.50;;;;;;5093762;28;20479;-72
2021/11/08 12:14:12;;;;;;;6.32;2.63;;;19.20;99.60;;;;;;5094415;28;20345;-70
2021/11/08 12:16:50;;;;;;;6.45;2.70;;;19.20;99.60;;;;;;5093291;28;20490;-67
2021/11/08 12:19:19;;;;;;;6.88;2.47;;;19.20;99.60;;;;;;5085243;28;20035;-72
2021/11/08 12:21:44;;;;;;;4.43;2.33;;;19.20;99.70;;;;;;5072917;28;20052;-75
2021/11/08 12:24:23;;;;;;;4.93;2.38;;;19.20;99.70;;;;;;5073289;28;20047;-70
2021/11/08 12:27:01;;;;;;;4.85;2.40;;;19.10;99.80;;;;;;5072927;28;20024;-70
2021/11/08 12:29:26;;;;;;;6.10;2.40;;;19.10;99.90;;;;;;5073381;28;20051;-75
2021/11/08 12:32:11;;;;;;;5.20;2.42;;;19.10;99.90;;;;;;5073409;28;20052;-74
2021/11/08 12:34:47;;;;;;;6.80;2.42;;;19.10;99.90;;;;;;5072863;28;20039;-70
2021/11/08 12:37:15;;;;;;;7.88;2.60;;;19.10;99.90;;;;;;5078323;28;20097;-67
2021/11/08 12:39:43;;;;;;;7.22;2.50;;;19.10;99.90;;;;;;5092880;28;20104;-74
2021/11/08 12:42:12;;;;;;;7.95;2.40;;;19.10;99.90;;;;;;5093340;28;20023;-73
2021/11/08 12:44:44;;;;;;;6.55;2.17;;;19.20;99.90;;;;;;5093146;28;20024;-70
2021/11/08 12:47:14;;;;;;;5.20;2.15;;;19.20;99.90;;;;;;5093229;28;20024;-73
2021/11/08 12:49:51;;;;;;;5.35;2.40;;;19.30;99.90;;;;;;5092607;28;20032;-70
2021/11/08 12:52:24;;;;;;;7.38;2.53;;;19.20;99.90;;;;;;5092859;28;20442;-73
2021/11/08 12:54:50;;;;;;;6.55;2.20;;;19.20;99.90;;;;;;5092841;28;20016;-72
2021/11/08 12:57:19;;;;;;;4.20;2.13;;;19.30;99.90;;;;;;5093069;28;20024;-70
2021/11/08 12:59:50;;;;;;;6.53;2.35;;;19.30;99.90;;;;;;5092452;28;20062;-67
2021/11/08 13:02:27;;;;;;;5.93;2.42;;;19.30;99.90;;;;;;5092879;28;20032;-66
2021/11/08 13:04:58;;;;;;;6.22;2.50;;;19.30;99.90;;;;;;5073113;28;20032;-72
2021/11/08 13:07:27;;;;;;;6.97;2.60;;;19.30;99.90;;;;;;5072723;28;20028;-72
2021/11/08 13:09:56;;;;;;;6.20;2.05;;;19.40;99.90;;;;;;5092608;28;20074;-71
2021/11/08 13:12:23;;;;;;;5.07;2.33;;;19.40;99.90;;;;;;5092599;28;20476;-71
2021/11/08 13:15:10;;;;;;;6.72;2.28;;;19.40;99.90;;;;;;5092347;28;20032;-72
2021/11/08 13:17:52;;;;;;;6.53;2.28;;;19.50;99.90;;;;;;5092433;28;20032;-71
2021/11/08 13:20:21;;;;;;;4.85;2.38;;;19.50;99.90;;;;;;5092547;28;20026;-73
2021/11/08 13:22:53;;;;;;;5.82;2.05;;;19.50;99.90;;;;;;5092210;28;20032;-70
2021/11/08 13:25:20;;;;;;;7.85;2.35;;;19.50;99.90;;;;;;5092561;28;20020;-70
2021/11/08 13:27:50;;;;;;;5.15;2.35;;;19.50;99.90;;;;;;5092199;28;20052;-70
2021/11/08 13:30:22;;;;;;;5.30;1.95;;;19.50;99.90;;;;;;5092255;28;20051;-69
2021/11/08 13:32:51;;;;;;;6.18;1.98;;;19.60;99.90;;;;;;5091566;28;20035;-69
2021/11/08 13:35:28;;;;;;;6.50;2.33;;;19.60;99.90;;;;;;5092250;28;20035;-68
2021/11/08 13:38:09;;;;;;;4.82;1.95;;;19.60;99.90;;;;;;5091847;28;20429;-68
2021/11/08 13:40:44;;;;;;;4.85;2.05;;;19.60;99.90;;;;;;5092298;28;20063;-69
2021/11/08 13:43:21;;;;;;;5.43;2.10;;;19.70;99.90;;;;;;5092224;28;20024;-68
2021/11/08 13:45:55;;;;;;;4.95;2.00;;;19.60;99.90;;;;;;5091716;28;20031;-68
2021/11/08 13:48:25;;;;;;;;;;;19.70;99.90;;;;;;5092568;28;20028;-70
2021/11/08 13:50:52;;;;;;;5.82;1.90;;;19.70;99.90;;;;;;5090707;28;19958;-68
2021/11/08 13:53:25;;;;;;;4.60;1.77;;;19.70;99.90;;;;;;5071769;28;20016;-68
2021/11/08 13:55:54;;;;;;;5.95;1.90;;;19.70;99.90;;;;;;5071644;28;20028;-69
2021/11/08 13:58:20;;;;;;;4.60;2.10;;;19.70;99.90;;;;;;5074782;28;20084;-69
2021/11/08 14:00:46;;;;;;;5.18;1.83;;;19.70;99.90;;;;;;5091452;28;20027;-70
2021/11/08 14:03:16;;;;;;;5.47;2.10;;;19.70;99.90;;;;;;5092100;28;20090;-71
2021/11/08 14:05:49;;;;;;;3.95;1.92;;;19.70;99.90;;;;;;5091788;28;20107;-73
2021/11/08 14:08:23;;;;;;;4.32;1.75;;;19.70;99.90;;;;;;5077222;28;20021;-71
2021/11/08 14:10:51;;;;;;;3.38;1.73;;;19.70;99.90;;;;;;5070350;28;20402;-69
2021/11/08 14:13:17;;;;;;;4.30;1.60;;;19.70;99.90;;;;;;5073664;28;20029;-68
2021/11/08 14:15:42;;;;;;;4.72;1.92;;;19.70;99.90;;;;;;5090789;28;20036;-71
2021/11/08 14:18:19;;;;;;;4.07;1.63;;;19.70;99.90;;;;;;5091567;28;20020;-69
2021/11/08 14:20:45;;;;;;;7.63;2.10;;;19.80;99.90;;;;;;5091341;28;20388;-71
2021/11/08 14:23:10;;;;;;;4.75;2.10;;;19.70;99.90;;;;;;5077263;28;20028;-71
2021/11/08 14:25:36;;;;;;;3.90;1.80;;;19.80;99.90;;;;;;5071308;28;20036;-70
2021/11/08 14:28:02;;;;;;;5.75;1.85;;;19.70;99.90;;;;;;5071358;28;20048;-70
2021/11/08 14:30:28;;;;;;;5.53;2.00;;;19.70;99.90;;;;;;5071115;28;20472;-73
2021/11/08 14:32:53;;;;;;;5.28;1.85;;;19.70;99.90;;;;;;5070320;28;20021;-72
2021/11/08 14:35:24;;;;;;;3.00;1.73;;;19.70;99.90;;;;;;5080482;28;20127;-72
2021/11/08 14:38:05;;;;;;;8.40;1.98;;;19.70;99.90;;;;;;5091420;28;20040;-72
2021/11/08 14:40:37;;;;;;;6.10;2.10;;;19.70;99.90;;;;;;5091227;28;20050;-70
2021/11/08 14:43:32;;;;;;;5.50;1.90;;;19.70;99.90;;;;;;5091614;28;20430;-73
2021/11/08 14:46:02;;;;;;;5.15;1.83;;;19.80;99.90;;;;;;5086271;28;20046;-74